Monte Plata, Dominican Republic
Current Conditions -  °F | °C
As of 7:00 PM on Saturday 25 Oct 2014 (Local Time) from MDSD Reporting Station
Scattered Clouds Scattered Clouds  
Wind Chill: 81°   Ceiling: Unl
Heat Index: 86°   Visibility: 6mi
Dew Point: 75°   Wind: 7mph
Humidity: 84%   Direction: 190°S
Pressure: 29.8"   Gusts: NA
Location:  18.81°N, 69.79°W
Report Text: MDSD 252300Z 19006KT 9999 SCT020 SCT300 27/24 Q1009 NOSIG
Loading
Personal Weather Stations






























Interactive Weather Map
Tropical Storm Tracking
New forecast layout! Learn more

10-Day Weather Forecast

Advertisements
Track Severe Weather on mobile